Time;durP1;ratioP1;P1;durP2;ratioP2;P2;SDS_P1;SDS_P2;PMS_P1;PMS_P2;Temp;Humidity;BMP_temperature;BMP_pressure;BME280_temperature;BME280_humidity;BME280_pressure;Samples;Min_cycle;Max_cycle;Signal;HPM_P1;HPM_P2
2022/06/24 00:00:14;;;;;;;11.35;6.60;;;;;;;19.03;74.42;99249.50;4960799;28;20493;-74
2022/06/24 00:02:41;;;;;;;11.77;6.82;;;;;;;19.28;73.28;99254.47;4954571;29;20019;-74
2022/06/24 00:05:10;;;;;;;8.77;6.60;;;;;;;19.46;72.39;99243.19;4954502;29;20512;-74
2022/06/24 00:07:52;;;;;;;9.45;6.45;;;;;;;19.61;72.15;99233.50;4937180;29;20027;-74
2022/06/24 00:10:20;;;;;;;9.93;7.45;;;;;;;19.75;70.79;99234.72;4954555;29;20441;-74
2022/06/24 00:12:47;;;;;;;13.35;7.20;;;;;;;19.81;70.75;99216.06;4953929;28;20027;-74
2022/06/24 00:15:13;;;;;;;11.70;6.70;;;;;;;19.81;70.66;99224.59;4968737;28;20394;-74
2022/06/24 00:17:38;;;;;;;14.68;6.30;;;;;;;19.67;70.70;99230.25;4973656;28;20080;-74
2022/06/24 00:20:07;;;;;;;15.55;7.75;;;;;;;19.57;70.61;99226.19;4972072;28;20046;-74
2022/06/24 00:22:42;;;;;;;11.18;5.85;;;;;;;19.59;70.79;99229.44;4973592;28;20022;-74
2022/06/24 00:25:15;;;;;;;8.50;6.68;;;;;;;19.47;70.94;99220.09;4961756;28;20517;-74
2022/06/24 00:27:42;;;;;;;11.75;6.10;;;;;;;19.67;70.10;99219.72;4954007;29;20057;-74
2022/06/24 00:30:10;;;;;;;14.00;7.45;;;;;;;19.60;70.35;99212.00;4954005;29;20027;-74
2022/06/24 00:32:36;;;;;;;7.28;6.57;;;;;;;19.69;70.02;99216.47;4953985;29;20474;-74
2022/06/24 00:35:09;;;;;;;12.70;7.38;;;;;;;19.65;70.05;99213.63;4954090;29;20027;-74
2022/06/24 00:37:36;;;;;;;13.85;8.18;;;;;;;19.63;70.06;99213.22;4954369;28;20509;-74
2022/06/24 00:40:23;;;;;;;9.93;6.97;;;;;;;19.67;70.29;99207.56;4973213;28;20057;-74
2022/06/24 00:42:49;;;;;;;11.55;7.30;;;;;;;19.78;69.37;99209.19;4972951;28;20027;-74
2022/06/24 00:45:38;;;;;;;12.95;8.13;;;;;;;19.75;69.72;99215.66;4971899;28;20030;-74
2022/06/24 00:48:13;;;;;;;11.07;6.78;;;;;;;19.28;71.70;99214.78;4972599;28;20022;-74
2022/06/24 00:50:42;;;;;;;15.38;8.20;;;;;;;18.74;74.78;99226.69;4953900;29;20035;-74
2022/06/24 00:53:08;;;;;;;12.85;7.90;;;;;;;18.92;74.60;99215.44;4968351;28;20042;-74
2022/06/24 00:55:36;;;;;;;9.38;8.15;;;;;;;19.07;74.06;99222.03;4953712;29;20114;-74
2022/06/24 00:58:03;;;;;;;10.00;8.80;;;;;;;18.51;76.36;99213.63;4961306;28;20355;-74
2022/06/24 01:00:33;;;;;;;17.60;10.00;;;;;;;18.29;77.25;99221.97;4973063;28;20027;-74
2022/06/24 01:03:03;;;;;;;9.82;8.73;;;;;;;18.10;78.61;99229.53;4955312;28;20019;-74
2022/06/24 01:05:30;;;;;;;16.90;9.60;;;;;;;18.22;78.07;99219.06;4971427;28;20114;-74
2022/06/24 01:07:58;;;;;;;11.40;8.30;;;;;;;18.40;77.36;99224.06;4955201;28;20119;-74
2022/06/24 01:10:23;;;;;;;12.35;9.00;;;;;;;18.13;78.60;99221.47;4972649;28;20062;-74
2022/06/24 01:12:49;;;;;;;15.55;10.35;;;;;;;17.92;79.86;99225.69;4972602;28;20375;-74
2022/06/24 01:15:14;;;;;;;20.95;9.13;;;;;;;17.71;80.96;99235.63;4972261;28;20405;-74
2022/06/24 01:17:41;;;;;;;12.25;9.85;;;;;;;17.73;80.84;99238.84;4972558;28;20409;-74
2022/06/24 01:20:11;;;;;;;13.23;9.70;;;;;;;17.77;80.78;99241.72;4955310;28;20121;-74
2022/06/24 01:22:37;;;;;;;;;;;;;;;17.69;81.46;99246.50;4973328;28;20113;-74
2022/06/24 01:25:03;;;;;;;17.05;10.30;;;;;;;17.74;80.99;99245.34;4962921;28;19965;-74
2022/06/24 01:27:28;;;;;;;14.20;9.45;;;;;;;17.70;80.83;99242.47;4940203;29;20074;-74
2022/06/24 01:29:54;;;;;;;16.33;9.68;;;;;;;17.45;81.59;99236.59;4939842;29;20015;-74
2022/06/24 01:32:20;;;;;;;14.75;9.93;;;;;;;17.33;81.75;99241.31;4957160;29;20035;-74
2022/06/24 01:34:45;;;;;;;15.23;9.27;;;;;;;17.20;82.60;99240.75;4946779;28;20027;-74
2022/06/24 01:37:11;;;;;;;18.48;9.95;;;;;;;17.02;82.96;99232.06;4976505;28;20105;-74
2022/06/24 01:39:37;;;;;;;17.52;9.65;;;;;;;17.22;82.04;99229.06;4976522;28;20496;-74
2022/06/24 01:42:03;;;;;;;11.95;10.15;;;;;;;16.90;83.36;99232.28;4976393;28;20038;-74
2022/06/24 01:44:29;;;;;;;14.07;10.05;;;;;;;16.72;83.83;99241.34;4971412;28;20027;-74
2022/06/24 01:46:54;;;;;;;13.57;9.55;;;;;;;16.55;84.75;99245.53;4939673;29;20111;-74
2022/06/24 01:49:20;;;;;;;10.50;9.13;;;;;;;16.44;85.20;99242.53;4956946;29;20053;-74
2022/06/24 01:51:49;;;;;;;10.73;7.85;;;;;;;16.37;85.01;99223.50;4957000;29;20055;-74
2022/06/24 01:54:14;;;;;;;10.68;8.43;;;;;;;16.35;85.39;99230.72;4941645;28;20414;-74
2022/06/24 01:56:40;;;;;;;16.33;8.32;;;;;;;16.38;84.93;99239.22;4976340;28;20033;-74
2022/06/24 01:59:05;;;;;;;15.23;8.68;;;;;;;16.50;85.06;99243.03;4976032;28;20030;-74
2022/06/24 02:01:31;;;;;;;11.32;8.48;;;;;;;16.70;83.56;99247.34;4975991;28;20023;-74
2022/06/24 02:03:57;;;;;;;9.05;8.10;;;;;;;16.72;82.99;99243.34;4975656;28;20061;-74
2022/06/24 02:06:22;;;;;;;8.80;6.95;;;;;;;16.77;83.11;99248.63;4956732;28;20035;-74
2022/06/24 02:08:48;;;;;;;14.00;7.97;;;;;;;17.01;82.53;99257.84;4956620;29;20098;-74
2022/06/24 02:14:03;;;;;;;19.05;9.07;;;;;;;17.00;81.62;99262.72;4956849;28;20382;-74
2022/06/24 02:16:28;;;;;;;17.17;8.65;;;;;;;16.82;81.87;99266.06;4920173;29;20030;-74
2022/06/24 02:18:55;;;;;;;15.70;8.13;;;;;;;16.86;81.87;99265.31;4937228;29;20486;-74
2022/06/24 02:21:22;;;;;;;17.27;8.07;;;;;;;16.87;81.09;99264.91;4937107;29;20059;-74
2022/06/24 02:23:48;;;;;;;9.88;6.45;;;;;;;16.73;81.79;99253.44;4937220;29;20040;-74
2022/06/24 02:26:13;;;;;;;12.93;6.82;;;;;;;16.86;81.47;99257.66;4955034;28;20042;-74
2022/06/24 02:28:39;;;;;;;9.68;6.82;;;;;;;17.05;80.02;99238.97;4956299;29;20557;-74
2022/06/24 02:31:05;;;;;;;21.83;8.02;;;;;;;17.09;79.61;99239.81;4956324;29;20026;-74
2022/06/24 02:33:31;;;;;;;12.45;7.68;;;;;;;17.03;79.72;99233.69;4956302;29;20086;-74
2022/06/24 02:35:57;;;;;;;9.73;6.50;;;;;;;16.82;80.84;99234.19;4970501;28;20038;-74
2022/06/24 02:38:22;;;;;;;15.82;8.57;;;;;;;16.83;81.04;99249.94;4975437;28;20031;-74
2022/06/24 02:40:48;;;;;;;8.90;7.22;;;;;;;16.77;81.75;99254.28;4975386;28;20027;-74
2022/06/24 02:43:27;;;;;;;9.32;7.07;;;;;;;16.97;81.03;99258.59;4965624;28;20058;-74
2022/06/24 02:45:57;;;;;;;12.38;7.80;;;;;;;17.15;80.06;99254.41;4969938;28;20101;-74
2022/06/24 02:48:23;;;;;;;10.68;8.07;;;;;;;16.96;80.99;99251.31;4975219;28;20019;-74
2022/06/24 02:50:53;;;;;;;17.60;7.53;;;;;;;17.01;80.35;99253.03;4975160;28;20093;-74
2022/06/24 02:53:19;;;;;;;;;;;;;;;17.30;79.81;99250.53;4975787;28;20093;-74
2022/06/24 02:55:47;;;;;;;14.68;6.80;;;;;;;17.37;78.92;99246.97;4973474;28;19914;-74
2022/06/24 02:58:13;;;;;;;12.40;7.32;;;;;;;17.58;78.15;99237.09;4962461;28;20114;-74
2022/06/24 03:00:41;;;;;;;14.23;7.22;;;;;;;17.11;79.22;99226.09;4955619;29;20516;-74
2022/06/24 03:03:07;;;;;;;14.35;7.47;;;;;;;17.04;79.60;99234.50;4955820;29;20395;-74
2022/06/24 03:05:32;;;;;;;11.63;6.97;;;;;;;16.78;80.89;99233.34;4962075;28;20035;-74
2022/06/24 03:07:58;;;;;;;10.65;7.35;;;;;;;16.45;82.23;99246.19;4941390;29;20035;-74
2022/06/24 03:10:23;;;;;;;16.80;7.70;;;;;;;16.31;82.96;99258.06;4955692;29;20031;-74
2022/06/24 03:12:49;;;;;;;20.02;7.60;;;;;;;16.03;84.09;99259.25;4955419;29;20031;-74
2022/06/24 03:15:15;;;;;;;15.90;9.85;;;;;;;15.90;84.70;99241.69;4947940;28;20023;-74
2022/06/24 03:17:40;;;;;;;15.15;8.07;;;;;;;15.92;84.84;99259.03;4955362;28;20058;-74
2022/06/24 03:20:07;;;;;;;14.13;7.55;;;;;;;15.91;85.03;99255.44;4955290;28;20426;-74
2022/06/24 03:22:33;;;;;;;25.67;8.38;;;;;;;15.91;84.59;99257.41;4950303;28;20031;-74
2022/06/24 03:24:59;;;;;;;12.00;6.93;;;;;;;16.20;83.43;99260.72;4950646;28;20031;-74
2022/06/24 03:27:24;;;;;;;16.52;6.43;;;;;;;16.17;82.90;99259.47;4954678;29;20023;-74
2022/06/24 03:29:50;;;;;;;17.25;7.45;;;;;;;16.20;82.42;99272.03;4954808;29;20047;-74
2022/06/24 03:32:16;;;;;;;13.85;7.32;;;;;;;15.76;85.12;99264.81;4955372;28;20034;-74
2022/06/24 03:34:42;;;;;;;19.60;7.80;;;;;;;15.75;84.73;99269.63;4938660;29;20402;-75
2022/06/24 03:37:07;;;;;;;18.60;9.13;;;;;;;15.60;86.44;99264.91;4955126;29;20035;-74
2022/06/24 03:39:33;;;;;;;15.90;10.65;;;;;;;15.49;87.48;99259.06;4955069;29;20478;-78
2022/06/24 03:41:58;;;;;;;13.80;9.52;;;;;;;15.75;86.63;99254.69;4954818;29;20019;-79
2022/06/24 03:44:24;;;;;;;25.20;9.10;;;;;;;16.07;85.48;99266.59;4937960;29;20466;-76
2022/06/24 03:46:49;;;;;;;16.13;8.05;;;;;;;16.32;84.33;99265.34;4955021;29;20062;-79
2022/06/24 03:49:15;;;;;;;18.83;8.88;;;;;;;16.32;84.24;99263.34;4954115;28;20058;-75
2022/06/24 03:51:41;;;;;;;24.00;9.48;;;;;;;16.05;85.84;99266.16;4954757;29;20512;-76
2022/06/24 03:54:07;;;;;;;16.27;9.35;;;;;;;16.09;86.70;99263.34;4955935;28;20114;-76
2022/06/24 03:59:54;;;;;;;25.73;10.25;;;;;;;16.30;85.62;99247.97;5091294;23;20066;-73
2022/06/24 04:02:21;;;;;;;13.60;8.50;;;;;;;16.25;85.72;99227.38;4974628;28;20034;-73
2022/06/24 04:04:47;;;;;;;17.27;9.15;;;;;;;16.27;85.45;99229.78;4992413;28;20101;-73
2022/06/24 04:07:12;;;;;;;19.15;9.02;;;;;;;16.35;85.39;99236.34;4988677;28;20031;-75
2022/06/24 04:09:38;;;;;;;19.88;8.73;;;;;;;16.28;85.53;99242.69;4967175;28;20065;-73
2022/06/24 04:12:04;;;;;;;19.02;10.48;;;;;;;15.89;86.78;99234.41;4952260;28;20041;-74
2022/06/24 04:17:13;;;;;;;24.52;9.93;;;;;;;15.83;87.72;99251.66;4970610;28;20065;-71
2022/06/24 04:19:38;;;;;;;24.08;10.52;;;;;;;15.58;88.27;99234.28;4987693;28;20026;-73
2022/06/24 04:22:04;;;;;;;18.73;8.98;;;;;;;15.66;88.29;99240.84;4972920;28;20107;-72
2022/06/24 04:24:30;;;;;;;25.00;10.77;;;;;;;15.78;87.22;99242.69;4955498;28;20485;-75
2022/06/24 04:26:56;;;;;;;16.23;8.75;;;;;;;15.92;86.91;99242.13;4972835;28;20038;-76
2022/06/24 04:29:21;;;;;;;13.27;8.50;;;;;;;16.05;86.25;99239.94;4970950;28;20044;-75
2022/06/24 04:31:47;;;;;;;15.95;8.52;;;;;;;16.05;85.96;99245.56;4952871;28;20473;-75
2022/06/24 04:34:12;;;;;;;18.33;8.35;;;;;;;16.08;86.09;99228.72;4978954;28;20504;-75
2022/06/24 04:36:37;;;;;;;16.30;8.70;;;;;;;16.28;85.63;99239.88;4948231;28;20090;-75
2022/06/24 04:39:03;;;;;;;28.23;10.57;;;;;;;16.23;84.97;99241.03;4975367;28;20042;-74
2022/06/24 04:41:29;;;;;;;20.67;8.98;;;;;;;16.08;85.06;99228.72;4972470;28;20101;-78
2022/06/24 04:43:54;;;;;;;14.52;8.85;;;;;;;15.99;84.97;99239.44;4972630;28;20030;-77
2022/06/24 04:46:21;;;;;;;18.40;8.13;;;;;;;16.05;85.69;99243.59;4953188;28;20045;-76
2022/06/24 04:48:46;;;;;;;12.48;8.10;;;;;;;16.18;84.60;99232.09;4955108;28;20023;-73
2022/06/24 04:51:12;;;;;;;16.00;8.00;;;;;;;16.29;84.05;99247.19;4953727;28;20035;-76
2022/06/24 04:53:38;;;;;;;14.40;8.48;;;;;;;16.46;84.49;99251.44;4972315;28;20054;-78
2022/06/24 04:56:04;;;;;;;31.17;23.27;;;;;;;16.51;84.86;99253.13;4953922;28;20385;-74
2022/06/24 04:58:29;;;;;;;23.35;15.05;;;;;;;16.64;85.02;99229.09;4961223;28;20058;-75
2022/06/24 05:00:55;;;;;;;15.88;7.93;;;;;;;16.98;83.67;99242.47;4934523;29;20054;-73
2022/06/24 05:03:20;;;;;;;15.80;10.60;;;;;;;16.96;83.90;99233.56;4953079;29;20065;-72
2022/06/24 05:05:46;;;;;;;14.50;8.75;;;;;;;17.40;83.20;99232.09;4967572;28;20497;-75
2022/06/24 05:08:11;;;;;;;10.60;7.50;;;;;;;17.63;82.76;99233.94;4952925;29;20078;-72
2022/06/24 05:10:37;;;;;;;15.10;7.95;;;;;;;17.90;81.97;99228.13;4950166;29;20421;-70
2022/06/24 05:13:02;;;;;;;13.65;8.05;;;;;;;18.08;82.03;99236.78;4949558;29;20027;-71
2022/06/24 05:15:28;;;;;;;13.25;9.07;;;;;;;18.26;81.76;99236.91;4951177;29;20023;-70
2022/06/24 05:17:54;;;;;;;27.90;17.02;;;;;;;18.46;80.80;99233.78;4933586;29;20657;-75
2022/06/24 05:20:19;;;;;;;31.27;24.00;;;;;;;18.78;80.62;99247.34;4950279;29;20074;-74
2022/06/24 05:22:45;;;;;;;18.00;9.82;;;;;;;19.09;79.33;99259.28;4950864;29;20651;-74
2022/06/24 05:25:10;;;;;;;10.30;8.55;;;;;;;19.08;77.94;99249.94;4950725;29;20418;-73
2022/06/24 05:27:36;;;;;;;10.57;7.18;;;;;;;18.98;77.89;99247.03;4951627;29;20034;-73
2022/06/24 05:30:03;;;;;;;17.00;7.68;;;;;;;19.01;78.06;99254.78;4952609;29;20055;-74
2022/06/24 05:32:28;;;;;;;23.67;7.90;;;;;;;18.94;78.35;99253.53;4935298;29;20031;-73
2022/06/24 05:34:54;;;;;;;18.95;8.98;;;;;;;18.99;79.08;99240.16;4952690;29;20074;-73
2022/06/24 05:37:19;;;;;;;17.75;8.95;;;;;;;18.98;78.97;99244.22;4967297;28;20382;-74
2022/06/24 05:39:44;;;;;;;15.10;8.85;;;;;;;19.07;77.80;99254.00;4951948;29;20023;-73
2022/06/24 05:42:10;;;;;;;11.57;9.02;;;;;;;19.11;77.16;99244.69;4952907;29;20023;-73
2022/06/24 05:44:35;;;;;;;14.63;8.35;;;;;;;19.19;75.86;99258.50;4953333;29;20054;-72
2022/06/24 05:47:01;;;;;;;13.00;7.70;;;;;;;19.28;76.47;99254.47;4965090;28;20027;-74
2022/06/24 05:49:27;;;;;;;16.25;8.13;;;;;;;19.29;76.85;99256.09;4952539;29;20106;-74
2022/06/24 05:51:52;;;;;;;18.10;9.20;;;;;;;19.55;76.24;99259.81;4966742;28;20027;-74
2022/06/24 05:57:02;;;;;;;12.70;8.43;;;;;;;19.51;74.70;99245.63;4952202;29;20033;-74
2022/06/24 05:59:27;;;;;;;12.02;8.93;;;;;;;19.87;74.77;99257.03;4948718;28;20035;-75
2022/06/24 06:01:53;;;;;;;13.25;6.65;;;;;;;20.00;71.57;99243.28;4951336;28;20526;-74
2022/06/24 06:04:18;;;;;;;11.07;7.32;;;;;;;20.17;71.33;99243.69;4967394;28;20465;-74
2022/06/24 06:06:45;;;;;;;15.38;7.15;;;;;;;20.39;70.62;99249.34;4950722;29;20034;-74
2022/06/24 06:09:11;;;;;;;16.15;6.72;;;;;;;20.54;67.14;99258.66;4950823;29;20046;-74
2022/06/24 06:11:36;;;;;;;11.65;6.47;;;;;;;20.47;67.25;99250.94;4953192;28;20062;-73
2022/06/24 06:14:02;;;;;;;9.07;6.65;;;;;;;20.37;68.18;99254.63;4950601;29;20015;-74
2022/06/24 06:16:27;;;;;;;8.50;6.05;;;;;;;20.72;68.05;99265.13;4935759;29;20110;-74
2022/06/24 06:18:53;;;;;;;23.20;7.00;;;;;;;21.08;67.08;99275.59;4955785;29;20090;-74
2022/06/24 06:21:19;;;;;;;16.63;6.43;;;;;;;21.07;66.17;99273.97;4955118;29;20055;-74
2022/06/24 06:23:44;;;;;;;15.35;6.88;;;;;;;21.03;66.01;99284.56;4968132;28;20093;-73
2022/06/24 06:26:11;;;;;;;12.90;6.88;;;;;;;21.10;66.70;99290.19;4953183;29;20034;-73
2022/06/24 06:28:38;;;;;;;14.98;6.50;;;;;;;21.12;66.97;99284.94;4937442;29;20151;-73
2022/06/24 06:31:04;;;;;;;10.57;5.95;;;;;;;21.49;63.53;99299.78;4969321;28;20030;-78
2022/06/24 06:33:32;;;;;;;10.55;5.60;;;;;;;21.70;64.25;99306.63;4937695;29;20390;-75
2022/06/24 06:36:08;;;;;;;11.57;7.13;;;;;;;21.41;64.63;99310.41;4954766;29;20031;-75
2022/06/24 06:38:34;;;;;;;12.15;6.38;;;;;;;21.74;63.78;99307.41;4970117;28;20380;-75
2022/06/24 06:41:00;;;;;;;10.93;6.28;;;;;;;21.80;62.98;99297.22;4954322;29;20398;-75
2022/06/24 06:43:27;;;;;;;9.48;5.50;;;;;;;22.00;62.05;99308.88;4955230;29;20425;-74
2022/06/24 06:45:54;;;;;;;29.45;7.03;;;;;;;22.07;61.51;99298.66;4949454;29;20457;-73
2022/06/24 06:48:20;;;;;;;9.85;6.10;;;;;;;22.25;62.06;99287.13;4955646;29;20031;-75
2022/06/24 06:50:46;;;;;;;6.88;5.53;;;;;;;22.46;60.83;99277.59;4963438;28;20138;-74
2022/06/24 06:53:12;;;;;;;8.82;5.70;;;;;;;22.66;60.74;99277.00;4947450;29;20110;-77
2022/06/24 06:55:37;;;;;;;9.40;5.97;;;;;;;22.67;60.56;99279.44;4950196;29;20394;-79
2022/06/24 06:58:03;;;;;;;8.13;5.78;;;;;;;22.97;60.12;99274.25;4953183;28;20066;-77
2022/06/24 07:00:28;;;;;;;16.95;5.70;;;;;;;23.17;59.84;99268.69;4955477;29;20510;-80
2022/06/24 07:02:53;;;;;;;12.77;5.72;;;;;;;23.06;59.92;99271.69;4950427;29;20457;-78
2022/06/24 07:05:19;;;;;;;9.80;5.68;;;;;;;23.09;58.65;99279.38;4955221;29;20028;-78
2022/06/24 07:07:45;;;;;;;12.07;5.50;;;;;;;23.24;58.46;99267.78;4938128;29;20062;-79
2022/06/24 07:10:10;;;;;;;16.45;6.68;;;;;;;23.31;58.42;99264.06;4937702;29;20031;-78
2022/06/24 07:12:36;;;;;;;13.65;5.40;;;;;;;23.51;57.69;99275.63;4955920;29;20033;-78
2022/06/24 07:15:02;;;;;;;10.68;5.57;;;;;;;23.59;57.82;99274.28;4937372;29;20050;-78
2022/06/24 07:17:27;;;;;;;10.00;5.28;;;;;;;23.82;57.78;99279.25;4932223;29;20042;-75
2022/06/24 07:19:53;;;;;;;10.93;5.07;;;;;;;23.86;56.72;99269.84;4969380;28;20031;-76
2022/06/24 07:22:18;;;;;;;12.55;5.32;;;;;;;23.91;56.30;99258.72;4953266;28;20081;-75
2022/06/24 07:24:44;;;;;;;10.45;5.78;;;;;;;23.73;56.28;99264.72;4937237;29;20035;-75
2022/06/24 07:27:10;;;;;;;7.43;5.15;;;;;;;24.02;56.15;99260.63;4941588;29;20509;-75
2022/06/24 07:29:37;;;;;;;13.93;5.45;;;;;;;24.20;56.31;99255.44;4932963;29;20033;-75
2022/06/24 07:32:05;;;;;;;9.05;5.20;;;;;;;24.40;54.78;99252.63;4954124;29;20074;-75
2022/06/24 07:34:32;;;;;;;8.90;5.25;;;;;;;23.89;54.49;99243.25;4944047;29;20114;-75
2022/06/24 07:36:58;;;;;;;10.18;4.90;;;;;;;24.40;54.88;99240.41;4947170;29;20038;-76
2022/06/24 07:39:24;;;;;;;10.02;5.95;;;;;;;24.20;54.02;99244.00;4968662;28;20050;-75
2022/06/24 07:41:50;;;;;;;9.50;5.40;;;;;;;24.18;54.01;99235.06;4954185;29;20019;-75
2022/06/24 07:44:16;;;;;;;10.32;5.30;;;;;;;24.44;53.80;99228.91;4950608;29;20485;-76
2022/06/24 07:46:42;;;;;;;7.75;5.03;;;;;;;24.59;52.82;99229.44;4955840;28;20031;-76
2022/06/24 07:49:08;;;;;;;8.38;5.22;;;;;;;24.56;51.70;99222.56;4949747;29;20023;-75
2022/06/24 07:51:33;;;;;;;8.85;4.75;;;;;;;24.76;51.45;99222.56;4954118;29;20405;-75
2022/06/24 07:53:59;;;;;;;6.53;4.03;;;;;;;24.92;50.56;99219.03;4952122;29;20035;-75
2022/06/24 07:59:09;;;;;;;8.70;4.45;;;;;;;24.25;51.26;99214.94;4953316;28;20111;-75
2022/06/24 08:01:34;;;;;;;9.40;4.55;;;;;;;24.84;50.30;99222.44;4953667;29;20031;-77
2022/06/24 08:04:01;;;;;;;9.23;4.45;;;;;;;24.69;49.72;99205.53;4935410;29;20074;-76
2022/06/24 08:06:26;;;;;;;7.20;4.50;;;;;;;24.81;50.60;99213.50;4952778;29;20424;-76
2022/06/24 08:08:52;;;;;;;9.77;4.93;;;;;;;25.13;50.47;99216.94;4953702;29;20055;-75
2022/06/24 08:11:17;;;;;;;7.97;4.72;;;;;;;25.21;49.62;99217.59;4953375;29;20082;-75
2022/06/24 08:13:43;;;;;;;10.77;4.45;;;;;;;25.24;50.16;99214.66;4935860;29;20026;-76
2022/06/24 08:16:08;;;;;;;7.60;4.70;;;;;;;25.53;49.48;99218.94;4952744;29;20030;-76
2022/06/24 08:18:34;;;;;;;6.72;4.38;;;;;;;25.73;47.58;99220.97;4949292;29;20704;-75
2022/06/24 08:20:59;;;;;;;10.73;4.32;;;;;;;25.55;47.78;99219.31;4945496;29;20034;-79
2022/06/24 08:23:25;;;;;;;13.10;4.13;;;;;;;25.57;47.65;99228.25;4935301;29;20476;-76
2022/06/24 08:25:50;;;;;;;6.28;4.10;;;;;;;25.88;46.00;99230.81;4934907;29;20110;-76
2022/06/24 08:28:16;;;;;;;5.95;3.90;;;;;;;25.97;46.29;99229.41;4947183;29;20019;-75
2022/06/24 08:30:41;;;;;;;7.72;4.22;;;;;;;25.83;46.44;99221.94;4934260;29;20083;-76
2022/06/24 08:33:07;;;;;;;11.25;5.07;;;;;;;25.94;44.71;99225.34;4951371;29;20022;-76
2022/06/24 08:35:32;;;;;;;11.70;4.00;;;;;;;26.18;45.19;99214.53;4949608;28;20356;-76
2022/06/24 08:37:58;;;;;;;8.98;3.30;;;;;;;26.44;41.32;99217.56;4962723;28;20031;-73
2022/06/24 08:40:31;;;;;;;6.78;3.92;;;;;;;26.30;40.91;99210.13;4969574;28;20035;-76
2022/06/24 08:42:59;;;;;;;7.97;3.28;;;;;;;26.56;40.51;99218.06;4960964;28;20393;-76
2022/06/24 08:45:25;;;;;;;6.68;3.38;;;;;;;26.87;42.30;99212.72;4933978;29;20481;-76
2022/06/24 08:47:51;;;;;;;7.95;4.15;;;;;;;27.08;40.82;99207.59;4966289;28;20094;-76
2022/06/24 08:50:18;;;;;;;8.43;3.88;;;;;;;27.13;40.09;99211.97;4952415;28;20102;-75
2022/06/24 08:52:51;;;;;;;6.25;3.63;;;;;;;27.15;40.04;99209.44;4961191;28;20507;-76
2022/06/24 08:55:18;;;;;;;4.80;2.97;;;;;;;27.40;39.44;99210.78;4950309;28;20366;-75
2022/06/24 08:57:47;;;;;;;10.40;3.47;;;;;;;27.66;39.79;99214.47;4955944;28;20043;-75
2022/06/24 09:00:13;;;;;;;5.97;3.35;;;;;;;28.03;38.56;99214.09;4950281;28;20051;-75
2022/06/24 09:02:40;;;;;;;27.02;4.88;;;;;;;27.86;37.70;99211.34;4935137;29;20066;-74
2022/06/24 09:05:12;;;;;;;7.93;3.30;;;;;;;27.56;38.52;99207.00;4954329;28;20082;-75
2022/06/24 09:07:38;;;;;;;11.85;3.35;;;;;;;27.63;39.16;99208.81;4951600;28;20034;-76
2022/06/24 09:10:06;;;;;;;4.40;2.85;;;;;;;27.51;40.23;99202.59;4951352;28;20491;-75
2022/06/24 09:12:44;;;;;;;3.15;2.83;;;;;;;27.49;41.48;99202.25;4951949;28;20126;-76
2022/06/24 09:15:12;;;;;;;8.48;3.90;;;;;;;27.72;40.13;99203.19;4935720;29;20046;-74
2022/06/24 09:17:39;;;;;;;13.10;3.78;;;;;;;28.02;39.50;99209.63;4936873;28;20023;-75
2022/06/24 09:20:18;;;;;;;3.92;3.00;;;;;;;27.94;39.68;99206.19;4946653;29;20033;-75
2022/06/24 09:22:44;;;;;;;6.32;3.72;;;;;;;27.93;35.43;99198.03;4932632;29;20038;-76
2022/06/24 09:25:10;;;;;;;6.43;3.17;;;;;;;28.02;35.71;99198.13;4933600;29;20617;-75
2022/06/24 09:27:43;;;;;;;6.97;3.60;;;;;;;27.40;35.74;99190.66;4949429;28;20077;-76
2022/06/24 09:30:10;;;;;;;7.88;3.10;;;;;;;27.18;36.71;99192.13;4938421;28;20105;-75
2022/06/24 09:32:53;;;;;;;12.80;4.13;;;;;;;27.58;36.55;99201.63;4966711;28;20029;-75
2022/06/24 09:35:21;;;;;;;4.90;2.80;;;;;;;27.85;35.88;99191.72;4952704;28;20461;-75
2022/06/24 09:37:48;;;;;;;10.05;3.10;;;;;;;28.39;36.37;99194.84;4956097;28;20046;-75
2022/06/24 09:40:32;;;;;;;4.75;2.72;;;;;;;28.36;35.37;99187.16;4966355;28;20038;-75
2022/06/24 09:43:02;;;;;;;3.67;3.13;;;;;;;28.16;35.10;99193.94;4933579;29;20024;-75
2022/06/24 09:45:48;;;;;;;3.78;2.83;;;;;;;28.23;33.86;99195.78;4950069;28;20031;-75
2022/06/24 09:48:32;;;;;;;11.27;3.03;;;;;;;28.29;34.16;99186.13;4955402;28;20033;-74
2022/06/24 09:51:02;;;;;;;5.65;2.83;;;;;;;28.47;35.38;99190.44;4962664;28;20042;-73
2022/06/24 09:53:35;;;;;;;7.18;3.50;;;;;;;28.47;33.70;99196.19;4965295;28;20042;-73
2022/06/24 09:56:03;;;;;;;10.38;3.85;;;;;;;28.41;34.60;99189.41;4942259;28;20025;-73
2022/06/24 09:58:29;;;;;;;10.02;3.05;;;;;;;28.57;33.50;99186.38;4953634;29;20138;-73
2022/06/24 10:00:54;;;;;;;3.72;3.25;;;;;;;28.12;33.81;99191.22;4954264;28;20149;-76
2022/06/24 10:03:20;;;;;;;3.00;2.50;;;;;;;28.46;35.26;99171.59;4956809;28;20122;-76
2022/06/24 10:05:48;;;;;;;9.38;3.63;;;;;;;28.56;33.42;99173.28;4955306;28;20210;-76
2022/06/24 10:08:16;;;;;;;5.30;2.53;;;;;;;28.65;32.19;99178.28;4951160;29;20027;-75
2022/06/24 10:10:50;;;;;;;5.68;2.75;;;;;;;28.90;31.78;99172.88;4956964;28;20027;-75
2022/06/24 10:13:24;;;;;;;7.97;2.50;;;;;;;28.65;32.20;99181.16;4960110;28;20027;-72
2022/06/24 10:15:55;;;;;;;4.70;2.50;;;;;;;28.52;31.25;99178.31;4956224;28;20457;-71
2022/06/24 10:18:24;;;;;;;8.80;2.92;;;;;;;28.32;30.12;99184.38;4968329;28;20039;-73
2022/06/24 10:20:50;;;;;;;5.57;3.25;;;;;;;28.48;30.73;99174.78;4941450;29;20063;-73
2022/06/24 10:23:37;;;;;;;4.80;2.45;;;;;;;28.47;32.10;99178.94;4952453;28;20023;-73
2022/06/24 10:26:26;;;;;;;5.07;2.97;;;;;;;28.51;31.40;99175.94;4951289;29;20027;-74
2022/06/24 10:29:04;;;;;;;6.57;2.85;;;;;;;28.68;33.02;99171.59;4955941;29;20047;-73
2022/06/24 10:34:34;;;;;;;5.90;2.80;;;;;;;28.59;32.29;99175.19;4947169;29;20122;-73
2022/06/24 10:37:06;;;;;;;6.32;3.47;;;;;;;28.86;32.85;99167.28;4950371;29;20019;-73
2022/06/24 10:39:46;;;;;;;4.18;3.08;;;;;;;28.96;33.04;99173.88;4937928;29;20030;-74
2022/06/24 10:42:14;;;;;;;5.40;2.85;;;;;;;29.07;31.32;99179.22;4955107;29;20023;-73
2022/06/24 10:44:56;;;;;;;8.00;3.20;;;;;;;29.10;32.40;99178.31;4969923;28;20401;-73
2022/06/24 10:47:27;;;;;;;5.20;2.70;;;;;;;29.07;30.55;99173.47;4955396;29;20386;-73
2022/06/24 10:49:54;;;;;;;5.70;2.58;;;;;;;29.23;31.04;99176.13;4954747;29;20034;-73
2022/06/24 10:52:55;;;;;;;3.15;2.55;;;;;;;29.26;30.49;99171.50;4935487;29;20413;-74
2022/06/24 10:55:23;;;;;;;8.07;3.22;;;;;;;29.55;30.69;99176.94;4944846;29;20032;-74
2022/06/24 10:57:51;;;;;;;3.17;2.60;;;;;;;29.80;30.36;99183.75;4954504;28;20027;-73
2022/06/24 11:00:24;;;;;;;7.25;2.70;;;;;;;29.83;30.10;99179.94;4954783;28;20633;-73
2022/06/24 11:03:11;;;;;;;2.47;2.25;;;;;;;29.52;29.21;99183.66;4954879;29;20035;-73
2022/06/24 11:05:38;;;;;;;10.45;2.53;;;;;;;29.61;28.12;99176.34;4937707;29;20646;-73
2022/06/24 11:08:11;;;;;;;5.45;2.25;;;;;;;29.61;28.87;99187.84;4954868;28;20019;-73
2022/06/24 11:10:37;;;;;;;3.92;2.40;;;;;;;29.83;28.66;99182.81;4954774;29;20019;-74
2022/06/24 11:13:03;;;;;;;6.93;2.13;;;;;;;29.75;26.83;99169.97;4937113;29;20504;-73
2022/06/24 11:15:39;;;;;;;5.82;2.10;;;;;;;29.82;27.00;99181.22;4937010;29;20094;-73
2022/06/24 11:18:18;;;;;;;4.13;2.33;;;;;;;29.92;26.95;99189.88;4954699;29;20070;-73
2022/06/24 11:20:49;;;;;;;2.70;2.05;;;;;;;30.40;27.06;99178.75;4954135;29;20494;-73
2022/06/24 11:23:18;;;;;;;3.05;2.50;;;;;;;30.32;26.28;99174.59;4951779;29;20555;-74
2022/06/24 11:25:49;;;;;;;2.53;2.05;;;;;;;29.89;26.52;99176.41;4943793;29;20019;-73
2022/06/24 11:28:26;;;;;;;4.25;2.00;;;;;;;29.90;26.21;99181.72;4946611;29;20051;-72
2022/06/24 11:30:53;;;;;;;2.85;2.45;;;;;;;30.20;26.05;99169.78;4951835;29;20035;-73
2022/06/24 11:33:19;;;;;;;6.65;2.45;;;;;;;30.05;26.45;99179.06;4954683;29;20147;-73
2022/06/24 11:35:47;;;;;;;6.38;2.00;;;;;;;30.32;25.89;99165.94;4954242;29;20456;-73
2022/06/24 11:38:13;;;;;;;7.65;2.28;;;;;;;30.35;26.23;99173.63;4955222;29;20051;-73
2022/06/24 11:40:40;;;;;;;2.72;2.00;;;;;;;30.22;26.43;99175.88;4954826;29;20031;-73
2022/06/24 11:43:11;;;;;;;3.67;2.28;;;;;;;30.30;26.96;99185.81;4937403;29;20118;-73
2022/06/24 11:45:42;;;;;;;10.35;2.42;;;;;;;30.29;25.09;99184.22;4954309;28;20565;-73
2022/06/24 11:48:10;;;;;;;6.00;2.58;;;;;;;29.99;24.77;99172.28;4937865;29;20024;-73